Portada
METAR-TAF:

METAR-TAF

Aeroports :

Daegu, Corea del Sud

latitud: 35-54N, longitud: 128-39E, altitud: 35 m

Observació

L'informe es va fer fa 3 hores i 28 minuts, a les 04:00 UTC
Vent 3 kt del Nord/Nord-Oest
Temperatura 6°C
Humitat 36%
Pressió 1022 hPa
Visibilitat 10 km o més
sense núvols per sota de 1500 mi sense presència de cumulonimbus.

METAR: RKTN 060400Z 34003KT CAVOK 06/M08 Q1022

Hora: 16:28 (07:28 UTC)

Pronòstic

L'informe es va fer fa 2 hores i 28 minuts, a les 05:00 UTC
Pronòstic vàlid del 06 a les 06 UTC al 07 a les 12 UTC
Vent 12 kt del Oest/Nord-Oest
Visibilitat 10 km o més
Cel ennuvolat a una alçada de 3000 ft
Evolucionant progressivament
l' 06 a les 11 UTC al 06 a les 12 UTC
Vent 8 kt del Oest/Nord-Oest

TAF: RKTN 060500Z 0606/0712 30012KT 9999 BKN030 TNM03/0621Z TX08/0706Z BECMG 0611/0612 30008KT

Observacions i pronòstics meteorològics de més de 4000 aeroports (METAR i TAF).

Les estacions disponibles són els punts grocs i vermells al mapa.

Posi el ratolí al punt desitjat per veure el nom de l'estació.

Feu clic per veure les observacions i els pronòstics meteorològics.

Per canviar el mapa: feu clic els botons verds amb una creu de color negre per apropar; al botó verd amb un guió per allunyar la imatge; o en les fletxes verdes per a mapes adjacents.


METAR-TAF: